sensor_id;sensor_type;location;lat;lon;timestamp;P1;durP1;ratioP1;P2;durP2;ratioP2
8652;SDS011;4364;52.426;9.424;2023-05-10T00:01:19;4.97;;;3.30;;
8652;SDS011;4364;52.426;9.424;2023-05-10T00:03:45;4.93;;;3.17;;
8652;SDS011;4364;52.426;9.424;2023-05-10T00:06:12;4.33;;;3.30;;
8652;SDS011;4364;52.426;9.424;2023-05-10T00:08:38;3.00;;;2.60;;
8652;SDS011;4364;52.426;9.424;2023-05-10T00:11:05;4.40;;;3.43;;
8652;SDS011;4364;52.426;9.424;2023-05-10T00:13:31;6.20;;;3.23;;
8652;SDS011;4364;52.426;9.424;2023-05-10T00:15:58;4.70;;;3.17;;
8652;SDS011;4364;52.426;9.424;2023-05-10T00:18:24;4.23;;;2.90;;
8652;SDS011;4364;52.426;9.424;2023-05-10T00:20:51;5.63;;;3.27;;
8652;SDS011;4364;52.426;9.424;2023-05-10T00:23:17;4.30;;;3.03;;
8652;SDS011;4364;52.426;9.424;2023-05-10T00:25:44;4.53;;;2.93;;
8652;SDS011;4364;52.426;9.424;2023-05-10T00:28:10;4.60;;;3.10;;
8652;SDS011;4364;52.426;9.424;2023-05-10T00:30:37;4.97;;;3.23;;
8652;SDS011;4364;52.426;9.424;2023-05-10T00:33:03;4.40;;;3.40;;
8652;SDS011;4364;52.426;9.424;2023-05-10T00:35:30;4.80;;;3.10;;
8652;SDS011;4364;52.426;9.424;2023-05-10T00:37:56;3.30;;;3.00;;
8652;SDS011;4364;52.426;9.424;2023-05-10T00:40:23;5.70;;;3.00;;
8652;SDS011;4364;52.426;9.424;2023-05-10T00:42:54;4.07;;;3.10;;
8652;SDS011;4364;52.426;9.424;2023-05-10T00:45:21;4.17;;;3.20;;
8652;SDS011;4364;52.426;9.424;2023-05-10T00:47:47;4.30;;;3.13;;
8652;SDS011;4364;52.426;9.424;2023-05-10T00:50:14;6.07;;;3.10;;
8652;SDS011;4364;52.426;9.424;2023-05-10T00:52:41;3.80;;;2.73;;
8652;SDS011;4364;52.426;9.424;2023-05-10T00:55:09;4.07;;;3.30;;
8652;SDS011;4364;52.426;9.424;2023-05-10T00:57:38;3.33;;;3.03;;
8652;SDS011;4364;52.426;9.424;2023-05-10T01:00:05;4.87;;;3.13;;
8652;SDS011;4364;52.426;9.424;2023-05-10T01:02:33;6.77;;;3.13;;
8652;SDS011;4364;52.426;9.424;2023-05-10T01:05:01;4.50;;;3.10;;
8652;SDS011;4364;52.426;9.424;2023-05-10T01:07:29;5.80;;;3.30;;
8652;SDS011;4364;52.426;9.424;2023-05-10T01:09:56;5.13;;;3.20;;
8652;SDS011;4364;52.426;9.424;2023-05-10T01:12:23;5.80;;;3.17;;
8652;SDS011;4364;52.426;9.424;2023-05-10T01:14:50;5.17;;;3.47;;
8652;SDS011;4364;52.426;9.424;2023-05-10T01:17:17;5.53;;;3.80;;
8652;SDS011;4364;52.426;9.424;2023-05-10T01:19:43;4.90;;;3.37;;
8652;SDS011;4364;52.426;9.424;2023-05-10T01:22:14;4.70;;;3.50;;
8652;SDS011;4364;52.426;9.424;2023-05-10T01:27:40;7.30;;;3.90;;
8652;SDS011;4364;52.426;9.424;2023-05-10T01:30:25;6.27;;;3.17;;
8652;SDS011;4364;52.426;9.424;2023-05-10T01:33:39;3.80;;;3.13;;
8652;SDS011;4364;52.426;9.424;2023-05-10T01:44:15;4.73;;;3.30;;
8652;SDS011;4364;52.426;9.424;2023-05-10T01:47:12;4.63;;;3.17;;
8652;SDS011;4364;52.426;9.424;2023-05-10T01:49:44;6.20;;;3.50;;
8652;SDS011;4364;52.426;9.424;2023-05-10T01:52:14;6.30;;;3.40;;
8652;SDS011;4364;52.426;9.424;2023-05-10T01:54:49;5.50;;;3.50;;
8652;SDS011;4364;52.426;9.424;2023-05-10T01:57:20;5.10;;;3.60;;
8652;SDS011;4364;52.426;9.424;2023-05-10T01:59:51;5.97;;;3.40;;
8652;SDS011;4364;52.426;9.424;2023-05-10T02:02:20;6.60;;;3.60;;
8652;SDS011;4364;52.426;9.424;2023-05-10T02:04:47;3.73;;;3.20;;
8652;SDS011;4364;52.426;9.424;2023-05-10T02:07:15;4.93;;;3.47;;
8652;SDS011;4364;52.426;9.424;2023-05-10T02:09:43;4.70;;;3.40;;
8652;SDS011;4364;52.426;9.424;2023-05-10T02:12:14;4.73;;;3.50;;
8652;SDS011;4364;52.426;9.424;2023-05-10T02:14:42;3.87;;;3.47;;
8652;SDS011;4364;52.426;9.424;2023-05-10T02:17:10;4.10;;;3.47;;
8652;SDS011;4364;52.426;9.424;2023-05-10T02:19:38;5.10;;;3.40;;
8652;SDS011;4364;52.426;9.424;2023-05-10T02:22:07;4.53;;;3.53;;
8652;SDS011;4364;52.426;9.424;2023-05-10T02:24:35;5.73;;;3.57;;
8652;SDS011;4364;52.426;9.424;2023-05-10T02:27:03;5.50;;;3.70;;
8652;SDS011;4364;52.426;9.424;2023-05-10T02:29:31;4.43;;;3.83;;
8652;SDS011;4364;52.426;9.424;2023-05-10T02:31:59;5.13;;;4.00;;
8652;SDS011;4364;52.426;9.424;2023-05-10T02:34:29;5.73;;;3.70;;
8652;SDS011;4364;52.426;9.424;2023-05-10T02:36:56;5.07;;;4.27;;
8652;SDS011;4364;52.426;9.424;2023-05-10T02:39:26;6.43;;;4.37;;
8652;SDS011;4364;52.426;9.424;2023-05-10T02:41:55;6.13;;;3.90;;
8652;SDS011;4364;52.426;9.424;2023-05-10T02:44:23;9.37;;;4.17;;
8652;SDS011;4364;52.426;9.424;2023-05-10T02:46:53;6.93;;;3.90;;
8652;SDS011;4364;52.426;9.424;2023-05-10T02:49:21;6.63;;;4.10;;
8652;SDS011;4364;52.426;9.424;2023-05-10T02:51:49;7.17;;;4.47;;
8652;SDS011;4364;52.426;9.424;2023-05-10T02:54:20;5.13;;;3.47;;
8652;SDS011;4364;52.426;9.424;2023-05-10T02:56:58;5.93;;;4.13;;
8652;SDS011;4364;52.426;9.424;2023-05-10T02:59:30;7.00;;;4.47;;
8652;SDS011;4364;52.426;9.424;2023-05-10T03:01:57;5.13;;;4.20;;
8652;SDS011;4364;52.426;9.424;2023-05-10T03:04:23;4.60;;;4.20;;
8652;SDS011;4364;52.426;9.424;2023-05-10T03:06:53;6.17;;;4.20;;
8652;SDS011;4364;52.426;9.424;2023-05-10T03:09:19;6.90;;;4.27;;
8652;SDS011;4364;52.426;9.424;2023-05-10T03:18:01;5.93;;;4.43;;
8652;SDS011;4364;52.426;9.424;2023-05-10T03:20:43;5.10;;;4.37;;
8652;SDS011;4364;52.426;9.424;2023-05-10T03:25:44;5.63;;;4.47;;
8652;SDS011;4364;52.426;9.424;2023-05-10T03:28:13;5.13;;;4.23;;
8652;SDS011;4364;52.426;9.424;2023-05-10T03:30:41;7.20;;;4.80;;
8652;SDS011;4364;52.426;9.424;2023-05-10T03:33:10;6.47;;;4.80;;
8652;SDS011;4364;52.426;9.424;2023-05-10T03:35:41;5.23;;;4.37;;
8652;SDS011;4364;52.426;9.424;2023-05-10T03:38:07;5.83;;;4.57;;
8652;SDS011;4364;52.426;9.424;2023-05-10T03:40:34;6.57;;;4.60;;
8652;SDS011;4364;52.426;9.424;2023-05-10T03:43:01;6.93;;;4.50;;
8652;SDS011;4364;52.426;9.424;2023-05-10T03:45:28;5.67;;;4.53;;
8652;SDS011;4364;52.426;9.424;2023-05-10T03:47:54;7.27;;;5.13;;
8652;SDS011;4364;52.426;9.424;2023-05-10T03:50:21;4.90;;;4.40;;
8652;SDS011;4364;52.426;9.424;2023-05-10T03:52:48;5.57;;;4.80;;
8652;SDS011;4364;52.426;9.424;2023-05-10T03:55:14;5.57;;;4.83;;
8652;SDS011;4364;52.426;9.424;2023-05-10T03:57:40;6.47;;;5.10;;
8652;SDS011;4364;52.426;9.424;2023-05-10T04:00:07;7.70;;;4.60;;
8652;SDS011;4364;52.426;9.424;2023-05-10T04:02:40;5.50;;;4.70;;
8652;SDS011;4364;52.426;9.424;2023-05-10T04:05:13;9.43;;;4.87;;
8652;SDS011;4364;52.426;9.424;2023-05-10T04:07:40;6.73;;;5.00;;
8652;SDS011;4364;52.426;9.424;2023-05-10T04:10:06;5.83;;;4.60;;
8652;SDS011;4364;52.426;9.424;2023-05-10T04:12:33;7.07;;;4.70;;
8652;SDS011;4364;52.426;9.424;2023-05-10T04:15:00;5.40;;;4.73;;
8652;SDS011;4364;52.426;9.424;2023-05-10T04:17:27;14.37;;;5.27;;
8652;SDS011;4364;52.426;9.424;2023-05-10T04:19:53;8.47;;;5.20;;
8652;SDS011;4364;52.426;9.424;2023-05-10T04:22:20;6.67;;;4.60;;
8652;SDS011;4364;52.426;9.424;2023-05-10T04:24:47;5.13;;;4.53;;
8652;SDS011;4364;52.426;9.424;2023-05-10T04:27:13;7.97;;;5.07;;
8652;SDS011;4364;52.426;9.424;2023-05-10T04:29:40;7.03;;;5.23;;
8652;SDS011;4364;52.426;9.424;2023-05-10T04:32:07;7.47;;;5.37;;
8652;SDS011;4364;52.426;9.424;2023-05-10T04:34:34;7.13;;;5.17;;
8652;SDS011;4364;52.426;9.424;2023-05-10T04:37:00;7.20;;;5.43;;
8652;SDS011;4364;52.426;9.424;2023-05-10T04:39:27;8.47;;;5.53;;
8652;SDS011;4364;52.426;9.424;2023-05-10T04:41:53;6.03;;;5.43;;
8652;SDS011;4364;52.426;9.424;2023-05-10T04:44:20;10.03;;;5.60;;
8652;SDS011;4364;52.426;9.424;2023-05-10T04:46:46;7.43;;;5.37;;
8652;SDS011;4364;52.426;9.424;2023-05-10T04:49:13;7.43;;;5.90;;
8652;SDS011;4364;52.426;9.424;2023-05-10T04:51:40;9.13;;;6.37;;
8652;SDS011;4364;52.426;9.424;2023-05-10T04:54:06;7.33;;;5.97;;
8652;SDS011;4364;52.426;9.424;2023-05-10T04:56:33;8.23;;;6.23;;
8652;SDS011;4364;52.426;9.424;2023-05-10T04:59:00;6.37;;;5.77;;
8652;SDS011;4364;52.426;9.424;2023-05-10T05:01:26;8.90;;;6.13;;
8652;SDS011;4364;52.426;9.424;2023-05-10T05:03:53;8.77;;;6.30;;
8652;SDS011;4364;52.426;9.424;2023-05-10T05:06:19;8.27;;;6.10;;
8652;SDS011;4364;52.426;9.424;2023-05-10T05:08:47;8.70;;;6.60;;
8652;SDS011;4364;52.426;9.424;2023-05-10T05:11:15;9.50;;;7.03;;
8652;SDS011;4364;52.426;9.424;2023-05-10T05:13:42;9.43;;;7.10;;
8652;SDS011;4364;52.426;9.424;2023-05-10T05:16:08;9.87;;;6.87;;
8652;SDS011;4364;52.426;9.424;2023-05-10T05:18:35;8.43;;;7.10;;
8652;SDS011;4364;52.426;9.424;2023-05-10T05:21:01;10.83;;;7.17;;
8652;SDS011;4364;52.426;9.424;2023-05-10T05:23:28;11.80;;;7.07;;
8652;SDS011;4364;52.426;9.424;2023-05-10T05:25:54;8.40;;;7.10;;
8652;SDS011;4364;52.426;9.424;2023-05-10T05:28:21;10.03;;;7.73;;
8652;SDS011;4364;52.426;9.424;2023-05-10T05:30:47;8.70;;;7.40;;
8652;SDS011;4364;52.426;9.424;2023-05-10T05:33:14;9.27;;;7.27;;
8652;SDS011;4364;52.426;9.424;2023-05-10T05:35:43;8.93;;;6.97;;
8652;SDS011;4364;52.426;9.424;2023-05-10T05:38:13;9.47;;;7.60;;
8652;SDS011;4364;52.426;9.424;2023-05-10T05:40:40;11.03;;;7.83;;
8652;SDS011;4364;52.426;9.424;2023-05-10T05:43:06;9.60;;;7.23;;
8652;SDS011;4364;52.426;9.424;2023-05-10T05:45:33;10.03;;;8.00;;
8652;SDS011;4364;52.426;9.424;2023-05-10T05:48:00;8.90;;;7.43;;
8652;SDS011;4364;52.426;9.424;2023-05-10T05:50:27;9.37;;;7.30;;
8652;SDS011;4364;52.426;9.424;2023-05-10T05:52:53;8.20;;;7.30;;
8652;SDS011;4364;52.426;9.424;2023-05-10T05:55:20;9.13;;;6.90;;
8652;SDS011;4364;52.426;9.424;2023-05-10T05:57:46;9.60;;;8.60;;
8652;SDS011;4364;52.426;9.424;2023-05-10T06:00:13;12.57;;;8.17;;
8652;SDS011;4364;52.426;9.424;2023-05-10T06:02:39;8.97;;;8.03;;
8652;SDS011;4364;52.426;9.424;2023-05-10T06:05:06;11.80;;;7.97;;
8652;SDS011;4364;52.426;9.424;2023-05-10T06:07:33;9.23;;;7.73;;
8652;SDS011;4364;52.426;9.424;2023-05-10T06:10:00;10.90;;;7.70;;
8652;SDS011;4364;52.426;9.424;2023-05-10T06:12:27;11.03;;;8.77;;
8652;SDS011;4364;52.426;9.424;2023-05-10T06:14:53;8.83;;;7.83;;
8652;SDS011;4364;52.426;9.424;2023-05-10T06:17:20;10.27;;;7.73;;
8652;SDS011;4364;52.426;9.424;2023-05-10T06:19:47;10.73;;;8.23;;
8652;SDS011;4364;52.426;9.424;2023-05-10T06:22:14;11.30;;;8.67;;
8652;SDS011;4364;52.426;9.424;2023-05-10T06:24:40;10.60;;;8.67;;
8652;SDS011;4364;52.426;9.424;2023-05-10T06:27:07;10.07;;;8.40;;
8652;SDS011;4364;52.426;9.424;2023-05-10T06:29:34;11.07;;;8.90;;
8652;SDS011;4364;52.426;9.424;2023-05-10T06:32:00;10.93;;;8.83;;
8652;SDS011;4364;52.426;9.424;2023-05-10T06:34:27;9.53;;;8.00;;
8652;SDS011;4364;52.426;9.424;2023-05-10T06:36:53;9.57;;;8.57;;
8652;SDS011;4364;52.426;9.424;2023-05-10T06:39:20;10.57;;;8.10;;
8652;SDS011;4364;52.426;9.424;2023-05-10T06:41:46;10.67;;;8.80;;
8652;SDS011;4364;52.426;9.424;2023-05-10T06:44:13;12.37;;;9.37;;
8652;SDS011;4364;52.426;9.424;2023-05-10T06:46:39;11.97;;;8.83;;
8652;SDS011;4364;52.426;9.424;2023-05-10T06:49:06;11.63;;;8.47;;
8652;SDS011;4364;52.426;9.424;2023-05-10T06:51:32;14.27;;;9.23;;
8652;SDS011;4364;52.426;9.424;2023-05-10T06:53:59;10.67;;;8.83;;
8652;SDS011;4364;52.426;9.424;2023-05-10T06:56:25;11.20;;;9.03;;
8652;SDS011;4364;52.426;9.424;2023-05-10T06:58:52;12.17;;;8.83;;
8652;SDS011;4364;52.426;9.424;2023-05-10T07:01:18;10.33;;;8.53;;
8652;SDS011;4364;52.426;9.424;2023-05-10T07:03:45;10.30;;;7.90;;
8652;SDS011;4364;52.426;9.424;2023-05-10T07:06:12;12.33;;;9.40;;
8652;SDS011;4364;52.426;9.424;2023-05-10T07:08:54;10.20;;;7.10;;
8652;SDS011;4364;52.426;9.424;2023-05-10T07:11:21;8.50;;;7.23;;
8652;SDS011;4364;52.426;9.424;2023-05-10T07:13:48;8.50;;;7.60;;
8652;SDS011;4364;52.426;9.424;2023-05-10T07:16:14;10.07;;;8.87;;
8652;SDS011;4364;52.426;9.424;2023-05-10T07:18:40;10.67;;;8.40;;
8652;SDS011;4364;52.426;9.424;2023-05-10T07:21:07;11.07;;;8.90;;
8652;SDS011;4364;52.426;9.424;2023-05-10T07:23:33;10.57;;;7.30;;
8652;SDS011;4364;52.426;9.424;2023-05-10T07:26:00;9.17;;;6.67;;
8652;SDS011;4364;52.426;9.424;2023-05-10T07:28:26;5.37;;;4.73;;
8652;SDS011;4364;52.426;9.424;2023-05-10T07:30:53;4.93;;;4.17;;
8652;SDS011;4364;52.426;9.424;2023-05-10T07:33:19;5.70;;;3.50;;
8652;SDS011;4364;52.426;9.424;2023-05-10T07:35:46;4.47;;;3.13;;
8652;SDS011;4364;52.426;9.424;2023-05-10T07:38:12;3.23;;;2.87;;
8652;SDS011;4364;52.426;9.424;2023-05-10T07:40:39;2.87;;;2.50;;
8652;SDS011;4364;52.426;9.424;2023-05-10T07:43:06;3.57;;;2.93;;
8652;SDS011;4364;52.426;9.424;2023-05-10T07:45:33;3.97;;;2.53;;
8652;SDS011;4364;52.426;9.424;2023-05-10T07:48:00;2.63;;;2.43;;
8652;SDS011;4364;52.426;9.424;2023-05-10T07:50:26;2.50;;;2.30;;
8652;SDS011;4364;52.426;9.424;2023-05-10T07:52:53;2.27;;;2.07;;
8652;SDS011;4364;52.426;9.424;2023-05-10T07:55:20;2.40;;;2.20;;
8652;SDS011;4364;52.426;9.424;2023-05-10T07:57:49;2.50;;;2.30;;
8652;SDS011;4364;52.426;9.424;2023-05-10T08:00:19;2.80;;;2.40;;
8652;SDS011;4364;52.426;9.424;2023-05-10T08:02:46;3.40;;;3.10;;
8652;SDS011;4364;52.426;9.424;2023-05-10T08:05:14;3.53;;;3.23;;
8652;SDS011;4364;52.426;9.424;2023-05-10T08:07:41;4.63;;;3.60;;
8652;SDS011;4364;52.426;9.424;2023-05-10T08:10:08;4.13;;;3.70;;
8652;SDS011;4364;52.426;9.424;2023-05-10T08:12:37;5.03;;;4.10;;
8652;SDS011;4364;52.426;9.424;2023-05-10T08:15:04;4.77;;;4.00;;
8652;SDS011;4364;52.426;9.424;2023-05-10T08:17:32;5.00;;;3.73;;
8652;SDS011;4364;52.426;9.424;2023-05-10T08:19:59;5.23;;;4.03;;
8652;SDS011;4364;52.426;9.424;2023-05-10T08:22:26;4.10;;;3.70;;
8652;SDS011;4364;52.426;9.424;2023-05-10T08:24:52;4.97;;;4.00;;
8652;SDS011;4364;52.426;9.424;2023-05-10T08:27:19;4.23;;;3.63;;
8652;SDS011;4364;52.426;9.424;2023-05-10T08:29:45;4.83;;;4.00;;
8652;SDS011;4364;52.426;9.424;2023-05-10T08:32:16;5.37;;;4.20;;
8652;SDS011;4364;52.426;9.424;2023-05-10T08:34:42;4.57;;;4.17;;
8652;SDS011;4364;52.426;9.424;2023-05-10T08:37:09;5.10;;;4.50;;
8652;SDS011;4364;52.426;9.424;2023-05-10T08:39:39;5.20;;;4.70;;
8652;SDS011;4364;52.426;9.424;2023-05-10T08:42:05;5.37;;;4.60;;
8652;SDS011;4364;52.426;9.424;2023-05-10T08:44:35;6.07;;;4.93;;
8652;SDS011;4364;52.426;9.424;2023-05-10T08:47:04;6.17;;;5.30;;
8652;SDS011;4364;52.426;9.424;2023-05-10T08:49:33;6.20;;;5.27;;
8652;SDS011;4364;52.426;9.424;2023-05-10T08:52:01;6.10;;;5.07;;
8652;SDS011;4364;52.426;9.424;2023-05-10T08:54:31;6.37;;;5.13;;
8652;SDS011;4364;52.426;9.424;2023-05-10T08:56:59;5.10;;;4.60;;
8652;SDS011;4364;52.426;9.424;2023-05-10T08:59:27;5.80;;;5.20;;
8652;SDS011;4364;52.426;9.424;2023-05-10T09:01:53;6.10;;;5.50;;
8652;SDS011;4364;52.426;9.424;2023-05-10T09:04:23;7.97;;;5.30;;
8652;SDS011;4364;52.426;9.424;2023-05-10T09:06:50;6.00;;;5.17;;
8652;SDS011;4364;52.426;9.424;2023-05-10T09:09:17;6.07;;;5.30;;
8652;SDS011;4364;52.426;9.424;2023-05-10T09:11:45;6.07;;;5.47;;
8652;SDS011;4364;52.426;9.424;2023-05-10T09:14:12;7.60;;;5.30;;
8652;SDS011;4364;52.426;9.424;2023-05-10T09:16:39;5.80;;;4.80;;
8652;SDS011;4364;52.426;9.424;2023-05-10T09:19:06;6.80;;;5.97;;
8652;SDS011;4364;52.426;9.424;2023-05-10T09:21:35;7.43;;;5.80;;
8652;SDS011;4364;52.426;9.424;2023-05-10T09:24:05;6.80;;;6.13;;
8652;SDS011;4364;52.426;9.424;2023-05-10T09:26:33;6.73;;;6.03;;
8652;SDS011;4364;52.426;9.424;2023-05-10T09:29:03;6.33;;;5.73;;
8652;SDS011;4364;52.426;9.424;2023-05-10T09:31:46;7.00;;;5.80;;
8652;SDS011;4364;52.426;9.424;2023-05-10T09:34:17;5.60;;;5.00;;
8652;SDS011;4364;52.426;9.424;2023-05-10T09:36:54;6.07;;;5.47;;
8652;SDS011;4364;52.426;9.424;2023-05-10T09:39:33;8.03;;;6.00;;
8652;SDS011;4364;52.426;9.424;2023-05-10T09:42:04;6.23;;;5.60;;
8652;SDS011;4364;52.426;9.424;2023-05-10T09:44:32;7.17;;;6.47;;
8652;SDS011;4364;52.426;9.424;2023-05-10T09:47:01;7.67;;;6.80;;
8652;SDS011;4364;52.426;9.424;2023-05-10T09:49:28;7.17;;;6.47;;
8652;SDS011;4364;52.426;9.424;2023-05-10T09:52:01;7.97;;;7.17;;
8652;SDS011;4364;52.426;9.424;2023-05-10T09:54:28;10.07;;;7.23;;
8652;SDS011;4364;52.426;9.424;2023-05-10T09:56:55;9.93;;;7.03;;
8652;SDS011;4364;52.426;9.424;2023-05-10T09:59:22;9.73;;;7.47;;
8652;SDS011;4364;52.426;9.424;2023-05-10T10:01:56;9.83;;;7.20;;
8652;SDS011;4364;52.426;9.424;2023-05-10T10:04:27;9.13;;;7.80;;
8652;SDS011;4364;52.426;9.424;2023-05-10T10:07:01;9.20;;;7.77;;
8652;SDS011;4364;52.426;9.424;2023-05-10T10:09:29;8.73;;;7.67;;
8652;SDS011;4364;52.426;9.424;2023-05-10T10:11:56;9.67;;;7.43;;
8652;SDS011;4364;52.426;9.424;2023-05-10T10:14:23;7.97;;;6.93;;
8652;SDS011;4364;52.426;9.424;2023-05-10T10:16:50;12.23;;;7.37;;
8652;SDS011;4364;52.426;9.424;2023-05-10T10:19:33;7.20;;;6.17;;
8652;SDS011;4364;52.426;9.424;2023-05-10T10:22:02;7.47;;;6.03;;
8652;SDS011;4364;52.426;9.424;2023-05-10T10:24:28;7.97;;;6.27;;
8652;SDS011;4364;52.426;9.424;2023-05-10T10:26:56;9.70;;;7.10;;
8652;SDS011;4364;52.426;9.424;2023-05-10T10:29:36;9.07;;;6.67;;
8652;SDS011;4364;52.426;9.424;2023-05-10T10:35:02;8.90;;;7.33;;
8652;SDS011;4364;52.426;9.424;2023-05-10T10:37:42;9.80;;;7.60;;
8652;SDS011;4364;52.426;9.424;2023-05-10T10:40:29;9.83;;;6.60;;
8652;SDS011;4364;52.426;9.424;2023-05-10T10:46:09;7.00;;;6.30;;
8652;SDS011;4364;52.426;9.424;2023-05-10T10:48:36;7.77;;;6.77;;
8652;SDS011;4364;52.426;9.424;2023-05-10T10:51:03;9.23;;;6.37;;
8652;SDS011;4364;52.426;9.424;2023-05-10T10:53:29;10.80;;;7.73;;
8652;SDS011;4364;52.426;9.424;2023-05-10T10:56:30;10.60;;;7.53;;
8652;SDS011;4364;52.426;9.424;2023-05-10T10:58:50;9.20;;;7.80;;
8652;SDS011;4364;52.426;9.424;2023-05-10T11:01:18;10.87;;;7.93;;
8652;SDS011;4364;52.426;9.424;2023-05-10T11:04:16;14.17;;;9.40;;
8652;SDS011;4364;52.426;9.424;2023-05-10T11:06:44;8.67;;;7.17;;
8652;SDS011;4364;52.426;9.424;2023-05-10T11:09:11;11.40;;;8.50;;
8652;SDS011;4364;52.426;9.424;2023-05-10T11:11:48;7.47;;;5.93;;
8652;SDS011;4364;52.426;9.424;2023-05-10T11:14:19;8.30;;;6.13;;
8652;SDS011;4364;52.426;9.424;2023-05-10T11:16:47;10.90;;;5.83;;
8652;SDS011;4364;52.426;9.424;2023-05-10T11:19:14;7.33;;;6.33;;
8652;SDS011;4364;52.426;9.424;2023-05-10T11:22:11;9.17;;;6.17;;
8652;SDS011;4364;52.426;9.424;2023-05-10T11:24:39;8.93;;;6.77;;
8652;SDS011;4364;52.426;9.424;2023-05-10T11:27:06;7.73;;;6.20;;
8652;SDS011;4364;52.426;9.424;2023-05-10T11:29:32;9.57;;;6.63;;
8652;SDS011;4364;52.426;9.424;2023-05-10T11:31:59;8.23;;;6.17;;
8652;SDS011;4364;52.426;9.424;2023-05-10T11:34:30;8.93;;;6.50;;
8652;SDS011;4364;52.426;9.424;2023-05-10T11:37:01;10.20;;;7.93;;
8652;SDS011;4364;52.426;9.424;2023-05-10T11:39:28;7.73;;;6.40;;
8652;SDS011;4364;52.426;9.424;2023-05-10T11:41:56;8.73;;;6.27;;
8652;SDS011;4364;52.426;9.424;2023-05-10T11:44:28;7.27;;;6.00;;
8652;SDS011;4364;52.426;9.424;2023-05-10T11:46:58;9.47;;;6.37;;
8652;SDS011;4364;52.426;9.424;2023-05-10T11:49:26;6.53;;;5.67;;
8652;SDS011;4364;52.426;9.424;2023-05-10T11:51:52;6.73;;;5.60;;
8652;SDS011;4364;52.426;9.424;2023-05-10T11:54:19;6.50;;;5.67;;
8652;SDS011;4364;52.426;9.424;2023-05-10T11:56:45;8.10;;;6.37;;
8652;SDS011;4364;52.426;9.424;2023-05-10T11:59:13;9.20;;;7.10;;
8652;SDS011;4364;52.426;9.424;2023-05-10T12:01:41;9.67;;;7.27;;
8652;SDS011;4364;52.426;9.424;2023-05-10T12:04:07;10.53;;;7.83;;
8652;SDS011;4364;52.426;9.424;2023-05-10T12:06:37;11.10;;;7.53;;
8652;SDS011;4364;52.426;9.424;2023-05-10T12:09:06;10.67;;;8.13;;
8652;SDS011;4364;52.426;9.424;2023-05-10T12:11:36;8.67;;;6.80;;
8652;SDS011;4364;52.426;9.424;2023-05-10T12:14:08;9.27;;;7.00;;
8652;SDS011;4364;52.426;9.424;2023-05-10T12:16:36;11.17;;;7.97;;
8652;SDS011;4364;52.426;9.424;2023-05-10T12:19:02;15.10;;;9.60;;
8652;SDS011;4364;52.426;9.424;2023-05-10T12:21:29;11.50;;;8.63;;
8652;SDS011;4364;52.426;9.424;2023-05-10T12:24:03;22.47;;;14.33;;
8652;SDS011;4364;52.426;9.424;2023-05-10T12:26:31;25.37;;;16.50;;
8652;SDS011;4364;52.426;9.424;2023-05-10T12:29:17;11.97;;;7.97;;
8652;SDS011;4364;52.426;9.424;2023-05-10T12:31:49;12.87;;;9.37;;
8652;SDS011;4364;52.426;9.424;2023-05-10T12:34:26;29.00;;;17.53;;
8652;SDS011;4364;52.426;9.424;2023-05-10T12:36:56;15.30;;;10.70;;
8652;SDS011;4364;52.426;9.424;2023-05-10T12:39:23;14.20;;;9.30;;
8652;SDS011;4364;52.426;9.424;2023-05-10T12:41:50;10.97;;;7.97;;
8652;SDS011;4364;52.426;9.424;2023-05-10T12:44:18;10.50;;;7.50;;
8652;SDS011;4364;52.426;9.424;2023-05-10T12:46:44;10.10;;;8.07;;
8652;SDS011;4364;52.426;9.424;2023-05-10T12:49:11;11.23;;;8.00;;
8652;SDS011;4364;52.426;9.424;2023-05-10T12:51:38;11.60;;;8.20;;
8652;SDS011;4364;52.426;9.424;2023-05-10T12:54:04;12.93;;;8.70;;
8652;SDS011;4364;52.426;9.424;2023-05-10T12:56:31;12.60;;;8.63;;
8652;SDS011;4364;52.426;9.424;2023-05-10T12:58:57;10.13;;;8.00;;
8652;SDS011;4364;52.426;9.424;2023-05-10T13:01:25;12.50;;;8.83;;
8652;SDS011;4364;52.426;9.424;2023-05-10T13:03:51;12.40;;;8.80;;
8652;SDS011;4364;52.426;9.424;2023-05-10T13:06:18;12.57;;;7.77;;
8652;SDS011;4364;52.426;9.424;2023-05-10T13:08:44;15.97;;;9.00;;
8652;SDS011;4364;52.426;9.424;2023-05-10T13:11:11;10.37;;;8.40;;
8652;SDS011;4364;52.426;9.424;2023-05-10T13:13:37;12.67;;;9.03;;
8652;SDS011;4364;52.426;9.424;2023-05-10T13:16:04;13.63;;;9.43;;
8652;SDS011;4364;52.426;9.424;2023-05-10T13:18:31;14.37;;;9.80;;
8652;SDS011;4364;52.426;9.424;2023-05-10T13:20:57;15.90;;;9.83;;
8652;SDS011;4364;52.426;9.424;2023-05-10T13:23:25;16.47;;;10.07;;
8652;SDS011;4364;52.426;9.424;2023-05-10T13:25:51;18.30;;;10.80;;
8652;SDS011;4364;52.426;9.424;2023-05-10T13:28:18;15.57;;;10.57;;
8652;SDS011;4364;52.426;9.424;2023-05-10T13:30:44;16.80;;;10.60;;
8652;SDS011;4364;52.426;9.424;2023-05-10T13:33:10;15.63;;;11.20;;
8652;SDS011;4364;52.426;9.424;2023-05-10T13:35:37;16.97;;;12.00;;
8652;SDS011;4364;52.426;9.424;2023-05-10T13:38:04;16.73;;;11.67;;
8652;SDS011;4364;52.426;9.424;2023-05-10T13:40:30;14.30;;;10.33;;
8652;SDS011;4364;52.426;9.424;2023-05-10T13:42:57;16.43;;;11.33;;
8652;SDS011;4364;52.426;9.424;2023-05-10T13:45:23;14.70;;;10.50;;
8652;SDS011;4364;52.426;9.424;2023-05-10T13:47:50;18.47;;;13.00;;
8652;SDS011;4364;52.426;9.424;2023-05-10T13:50:16;14.93;;;11.20;;
8652;SDS011;4364;52.426;9.424;2023-05-10T13:52:44;18.67;;;13.23;;
8652;SDS011;4364;52.426;9.424;2023-05-10T13:55:10;16.10;;;12.37;;
8652;SDS011;4364;52.426;9.424;2023-05-10T13:57:39;17.93;;;12.47;;
8652;SDS011;4364;52.426;9.424;2023-05-10T14:00:06;18.53;;;13.67;;
8652;SDS011;4364;52.426;9.424;2023-05-10T14:02:35;18.47;;;13.33;;
8652;SDS011;4364;52.426;9.424;2023-05-10T14:05:02;19.13;;;13.33;;
8652;SDS011;4364;52.426;9.424;2023-05-10T14:07:29;20.33;;;14.07;;
8652;SDS011;4364;52.426;9.424;2023-05-10T14:09:57;19.60;;;12.40;;
8652;SDS011;4364;52.426;9.424;2023-05-10T14:12:23;19.67;;;13.83;;
8652;SDS011;4364;52.426;9.424;2023-05-10T14:14:49;18.17;;;12.03;;
8652;SDS011;4364;52.426;9.424;2023-05-10T14:17:16;18.57;;;13.00;;
8652;SDS011;4364;52.426;9.424;2023-05-10T14:19:42;19.80;;;12.13;;
8652;SDS011;4364;52.426;9.424;2023-05-10T14:22:09;18.23;;;12.93;;
8652;SDS011;4364;52.426;9.424;2023-05-10T14:24:37;18.00;;;12.13;;
8652;SDS011;4364;52.426;9.424;2023-05-10T14:27:04;17.63;;;11.90;;
8652;SDS011;4364;52.426;9.424;2023-05-10T14:29:30;15.13;;;10.33;;
8652;SDS011;4364;52.426;9.424;2023-05-10T14:31:57;20.07;;;12.13;;
8652;SDS011;4364;52.426;9.424;2023-05-10T14:34:23;13.37;;;10.03;;
8652;SDS011;4364;52.426;9.424;2023-05-10T14:36:50;14.77;;;10.23;;
8652;SDS011;4364;52.426;9.424;2023-05-10T14:39:16;12.77;;;9.33;;
8652;SDS011;4364;52.426;9.424;2023-05-10T14:41:43;14.23;;;10.33;;
8652;SDS011;4364;52.426;9.424;2023-05-10T14:44:11;12.83;;;8.97;;
8652;SDS011;4364;52.426;9.424;2023-05-10T14:46:37;14.23;;;9.60;;
8652;SDS011;4364;52.426;9.424;2023-05-10T14:49:04;13.77;;;9.03;;
8652;SDS011;4364;52.426;9.424;2023-05-10T14:51:31;9.40;;;8.00;;
8652;SDS011;4364;52.426;9.424;2023-05-10T14:53:58;13.07;;;7.63;;
8652;SDS011;4364;52.426;9.424;2023-05-10T14:56:25;10.50;;;6.97;;
8652;SDS011;4364;52.426;9.424;2023-05-10T14:58:52;9.27;;;6.40;;
8652;SDS011;4364;52.426;9.424;2023-05-10T15:01:19;8.17;;;6.03;;
8652;SDS011;4364;52.426;9.424;2023-05-10T15:03:46;8.30;;;5.67;;
8652;SDS011;4364;52.426;9.424;2023-05-10T15:06:14;7.23;;;5.23;;
8652;SDS011;4364;52.426;9.424;2023-05-10T15:08:42;4.87;;;4.10;;
8652;SDS011;4364;52.426;9.424;2023-05-10T15:11:08;5.70;;;4.00;;
8652;SDS011;4364;52.426;9.424;2023-05-10T15:13:35;6.83;;;4.00;;
8652;SDS011;4364;52.426;9.424;2023-05-10T15:16:01;5.30;;;4.10;;
8652;SDS011;4364;52.426;9.424;2023-05-10T15:18:28;5.40;;;3.80;;
8652;SDS011;4364;52.426;9.424;2023-05-10T15:20:55;4.13;;;3.33;;
8652;SDS011;4364;52.426;9.424;2023-05-10T15:23:21;5.17;;;4.13;;
8652;SDS011;4364;52.426;9.424;2023-05-10T15:25:47;5.03;;;3.33;;
8652;SDS011;4364;52.426;9.424;2023-05-10T15:28:15;4.23;;;3.50;;
8652;SDS011;4364;52.426;9.424;2023-05-10T15:30:42;6.00;;;3.10;;
8652;SDS011;4364;52.426;9.424;2023-05-10T15:33:08;3.60;;;3.30;;
8652;SDS011;4364;52.426;9.424;2023-05-10T15:35:35;5.53;;;3.43;;
8652;SDS011;4364;52.426;9.424;2023-05-10T15:38:04;3.97;;;3.40;;
8652;SDS011;4364;52.426;9.424;2023-05-10T15:40:31;4.23;;;3.10;;
8652;SDS011;4364;52.426;9.424;2023-05-10T15:42:57;3.17;;;2.80;;